sensor_id;sensor_type;location;lat;lon;timestamp;temperature;humidity
2623;DHT22;1321;48.690;9.022;2022-12-04T00:01:53;3.10;1.00
2623;DHT22;1321;48.690;9.022;2022-12-04T00:04:21;3.00;1.00
2623;DHT22;1321;48.690;9.022;2022-12-04T00:06:49;3.00;99.90
2623;DHT22;1321;48.690;9.022;2022-12-04T00:09:24;2.90;19.20
2623;DHT22;1321;48.690;9.022;2022-12-04T00:11:52;3.00;99.90
2623;DHT22;1321;48.690;9.022;2022-12-04T00:14:20;3.00;1.00
2623;DHT22;1321;48.690;9.022;2022-12-04T00:16:49;3.00;1.00
2623;DHT22;1321;48.690;9.022;2022-12-04T00:19:18;3.00;55.10
2623;DHT22;1321;48.690;9.022;2022-12-04T00:21:48;3.10;45.40
2623;DHT22;1321;48.690;9.022;2022-12-04T00:24:16;3.00;99.90
2623;DHT22;1321;48.690;9.022;2022-12-04T00:26:45;2.90;99.90
2623;DHT22;1321;48.690;9.022;2022-12-04T00:29:13;3.10;99.90
2623;DHT22;1321;48.690;9.022;2022-12-04T00:31:41;3.10;99.90
2623;DHT22;1321;48.690;9.022;2022-12-04T00:34:10;3.10;99.90
2623;DHT22;1321;48.690;9.022;2022-12-04T00:36:40;3.10;99.90
2623;DHT22;1321;48.690;9.022;2022-12-04T00:39:08;3.10;99.90
2623;DHT22;1321;48.690;9.022;2022-12-04T00:41:37;3.10;99.90
2623;DHT22;1321;48.690;9.022;2022-12-04T00:44:05;3.20;99.90
2623;DHT22;1321;48.690;9.022;2022-12-04T00:46:33;3.10;99.90
2623;DHT22;1321;48.690;9.022;2022-12-04T00:49:02;3.10;99.90
2623;DHT22;1321;48.690;9.022;2022-12-04T00:51:30;3.10;99.90
2623;DHT22;1321;48.690;9.022;2022-12-04T00:54:00;3.20;99.90
2623;DHT22;1321;48.690;9.022;2022-12-04T00:56:28;3.10;93.80
2623;DHT22;1321;48.690;9.022;2022-12-04T00:58:58;3.00;99.90
2623;DHT22;1321;48.690;9.022;2022-12-04T01:01:28;3.00;99.90
2623;DHT22;1321;48.690;9.022;2022-12-04T01:03:57;3.00;99.90
2623;DHT22;1321;48.690;9.022;2022-12-04T01:06:27;3.00;99.90
2623;DHT22;1321;48.690;9.022;2022-12-04T01:08:56;3.00;99.90
2623;DHT22;1321;48.690;9.022;2022-12-04T01:11:28;3.10;99.90
2623;DHT22;1321;48.690;9.022;2022-12-04T01:13:56;3.20;99.90
2623;DHT22;1321;48.690;9.022;2022-12-04T01:16:27;3.10;99.90
2623;DHT22;1321;48.690;9.022;2022-12-04T01:18:55;3.10;99.90
2623;DHT22;1321;48.690;9.022;2022-12-04T01:21:24;3.10;99.90
2623;DHT22;1321;48.690;9.022;2022-12-04T01:23:52;3.00;99.90
2623;DHT22;1321;48.690;9.022;2022-12-04T01:26:20;3.00;99.90
2623;DHT22;1321;48.690;9.022;2022-12-04T01:28:49;3.10;99.90
2623;DHT22;1321;48.690;9.022;2022-12-04T01:31:19;3.10;99.90
2623;DHT22;1321;48.690;9.022;2022-12-04T01:33:49;3.10;99.90
2623;DHT22;1321;48.690;9.022;2022-12-04T01:36:20;3.00;99.90
2623;DHT22;1321;48.690;9.022;2022-12-04T01:38:49;3.00;99.90
2623;DHT22;1321;48.690;9.022;2022-12-04T01:41:20;3.00;99.90
2623;DHT22;1321;48.690;9.022;2022-12-04T01:44:15;3.10;99.90
2623;DHT22;1321;48.690;9.022;2022-12-04T01:46:45;3.00;99.90
2623;DHT22;1321;48.690;9.022;2022-12-04T01:49:16;3.00;99.90
2623;DHT22;1321;48.690;9.022;2022-12-04T01:51:49;3.00;99.90
2623;DHT22;1321;48.690;9.022;2022-12-04T01:54:21;3.20;99.90
2623;DHT22;1321;48.690;9.022;2022-12-04T01:56:58;3.10;89.90
2623;DHT22;1321;48.690;9.022;2022-12-04T01:59:32;3.10;99.90
2623;DHT22;1321;48.690;9.022;2022-12-04T02:02:06;3.10;99.90
2623;DHT22;1321;48.690;9.022;2022-12-04T02:04:36;3.00;99.90
2623;DHT22;1321;48.690;9.022;2022-12-04T02:07:04;3.00;99.90
2623;DHT22;1321;48.690;9.022;2022-12-04T02:09:34;2.90;99.90
2623;DHT22;1321;48.690;9.022;2022-12-04T02:12:10;2.90;99.90
2623;DHT22;1321;48.690;9.022;2022-12-04T02:14:48;3.00;99.90
2623;DHT22;1321;48.690;9.022;2022-12-04T02:17:24;2.90;99.90
2623;DHT22;1321;48.690;9.022;2022-12-04T02:20:03;2.90;99.90
2623;DHT22;1321;48.690;9.022;2022-12-04T02:25:42;3.20;1.00
2623;DHT22;1321;48.690;9.022;2022-12-04T02:28:18;3.10;1.00
2623;DHT22;1321;48.690;9.022;2022-12-04T02:30:50;3.00;1.00
2623;DHT22;1321;48.690;9.022;2022-12-04T02:33:22;2.90;61.50
2623;DHT22;1321;48.690;9.022;2022-12-04T02:35:59;2.90;99.90
2623;DHT22;1321;48.690;9.022;2022-12-04T02:38:33;3.00;99.90
2623;DHT22;1321;48.690;9.022;2022-12-04T02:41:07;2.90;99.90
2623;DHT22;1321;48.690;9.022;2022-12-04T02:43:41;2.90;99.90
2623;DHT22;1321;48.690;9.022;2022-12-04T02:46:16;2.90;99.90
2623;DHT22;1321;48.690;9.022;2022-12-04T02:48:48;2.90;99.90
2623;DHT22;1321;48.690;9.022;2022-12-04T02:51:19;3.00;99.90
2623;DHT22;1321;48.690;9.022;2022-12-04T02:53:52;3.00;99.90
2623;DHT22;1321;48.690;9.022;2022-12-04T02:56:24;3.00;99.90
2623;DHT22;1321;48.690;9.022;2022-12-04T02:58:56;3.00;99.90
2623;DHT22;1321;48.690;9.022;2022-12-04T03:01:30;3.00;99.90
2623;DHT22;1321;48.690;9.022;2022-12-04T03:04:02;3.10;99.90
2623;DHT22;1321;48.690;9.022;2022-12-04T03:06:35;3.10;99.90
2623;DHT22;1321;48.690;9.022;2022-12-04T03:09:07;3.00;99.90
2623;DHT22;1321;48.690;9.022;2022-12-04T03:11:38;3.00;99.90
2623;DHT22;1321;48.690;9.022;2022-12-04T03:14:11;3.00;99.90
2623;DHT22;1321;48.690;9.022;2022-12-04T03:16:41;3.00;99.90
2623;DHT22;1321;48.690;9.022;2022-12-04T03:19:14;3.10;99.90
2623;DHT22;1321;48.690;9.022;2022-12-04T03:21:46;3.00;99.90
2623;DHT22;1321;48.690;9.022;2022-12-04T03:24:21;3.00;99.90
2623;DHT22;1321;48.690;9.022;2022-12-04T03:26:53;3.00;99.90
2623;DHT22;1321;48.690;9.022;2022-12-04T03:29:28;3.00;99.90
2623;DHT22;1321;48.690;9.022;2022-12-04T03:32:05;2.90;99.90
2623;DHT22;1321;48.690;9.022;2022-12-04T03:34:38;3.00;99.90
2623;DHT22;1321;48.690;9.022;2022-12-04T03:37:13;2.90;99.90
2623;DHT22;1321;48.690;9.022;2022-12-04T03:39:46;2.90;99.90
2623;DHT22;1321;48.690;9.022;2022-12-04T03:42:22;3.00;99.90
2623;DHT22;1321;48.690;9.022;2022-12-04T03:44:57;3.10;99.90
2623;DHT22;1321;48.690;9.022;2022-12-04T03:47:33;3.00;99.90
2623;DHT22;1321;48.690;9.022;2022-12-04T03:50:07;2.90;99.90
2623;DHT22;1321;48.690;9.022;2022-12-04T03:52:45;3.00;99.90
2623;DHT22;1321;48.690;9.022;2022-12-04T03:55:21;2.90;99.90
2623;DHT22;1321;48.690;9.022;2022-12-04T03:57:52;2.90;99.90
2623;DHT22;1321;48.690;9.022;2022-12-04T04:00:25;2.80;99.90
2623;DHT22;1321;48.690;9.022;2022-12-04T04:02:56;2.90;99.90
2623;DHT22;1321;48.690;9.022;2022-12-04T04:05:28;2.90;99.90
2623;DHT22;1321;48.690;9.022;2022-12-04T04:08:00;3.00;99.90
2623;DHT22;1321;48.690;9.022;2022-12-04T04:10:44;3.00;99.90
2623;DHT22;1321;48.690;9.022;2022-12-04T04:13:15;3.00;99.90
2623;DHT22;1321;48.690;9.022;2022-12-04T04:16:04;2.90;99.90
2623;DHT22;1321;48.690;9.022;2022-12-04T04:18:52;2.90;99.90
2623;DHT22;1321;48.690;9.022;2022-12-04T04:21:40;2.80;1.00
2623;DHT22;1321;48.690;9.022;2022-12-04T04:24:31;2.70;99.90
2623;DHT22;1321;48.690;9.022;2022-12-04T04:27:01;2.70;99.90
2623;DHT22;1321;48.690;9.022;2022-12-04T04:29:30;2.80;99.90
2623;DHT22;1321;48.690;9.022;2022-12-04T04:32:02;2.90;99.90
2623;DHT22;1321;48.690;9.022;2022-12-04T04:34:38;2.90;99.90
2623;DHT22;1321;48.690;9.022;2022-12-04T04:37:14;2.80;99.90
2623;DHT22;1321;48.690;9.022;2022-12-04T04:39:48;2.80;99.90
2623;DHT22;1321;48.690;9.022;2022-12-04T04:42:23;2.90;99.90
2623;DHT22;1321;48.690;9.022;2022-12-04T04:44:59;2.90;99.90
2623;DHT22;1321;48.690;9.022;2022-12-04T04:47:32;2.80;99.90
2623;DHT22;1321;48.690;9.022;2022-12-04T04:50:02;2.90;99.90
2623;DHT22;1321;48.690;9.022;2022-12-04T04:52:32;2.90;99.90
2623;DHT22;1321;48.690;9.022;2022-12-04T04:55:01;3.00;99.90
2623;DHT22;1321;48.690;9.022;2022-12-04T04:57:32;2.90;1.00
2623;DHT22;1321;48.690;9.022;2022-12-04T05:00:02;2.90;99.90
2623;DHT22;1321;48.690;9.022;2022-12-04T05:02:33;2.90;99.90
2623;DHT22;1321;48.690;9.022;2022-12-04T05:05:01;2.90;1.00
2623;DHT22;1321;48.690;9.022;2022-12-04T05:07:29;2.50;12.60
2623;DHT22;1321;48.690;9.022;2022-12-04T05:09:58;2.60;99.90
2623;DHT22;1321;48.690;9.022;2022-12-04T05:12:26;2.60;99.90
2623;DHT22;1321;48.690;9.022;2022-12-04T05:14:54;2.60;99.90
2623;DHT22;1321;48.690;9.022;2022-12-04T05:17:22;2.70;99.90
2623;DHT22;1321;48.690;9.022;2022-12-04T05:19:52;2.80;99.90
2623;DHT22;1321;48.690;9.022;2022-12-04T05:22:22;2.80;99.90
2623;DHT22;1321;48.690;9.022;2022-12-04T05:24:51;2.90;99.90
2623;DHT22;1321;48.690;9.022;2022-12-04T05:27:20;2.80;99.90
2623;DHT22;1321;48.690;9.022;2022-12-04T05:29:51;2.90;99.90
2623;DHT22;1321;48.690;9.022;2022-12-04T05:32:21;2.90;99.90
2623;DHT22;1321;48.690;9.022;2022-12-04T05:34:49;2.90;1.00
2623;DHT22;1321;48.690;9.022;2022-12-04T05:37:20;2.80;1.00
2623;DHT22;1321;48.690;9.022;2022-12-04T05:39:48;2.80;1.00
2623;DHT22;1321;48.690;9.022;2022-12-04T05:42:16;2.70;1.00
2623;DHT22;1321;48.690;9.022;2022-12-04T05:44:44;2.70;62.70
2623;DHT22;1321;48.690;9.022;2022-12-04T05:47:12;2.60;99.90
2623;DHT22;1321;48.690;9.022;2022-12-04T05:49:40;2.60;99.90
2623;DHT22;1321;48.690;9.022;2022-12-04T05:52:09;2.70;99.90
2623;DHT22;1321;48.690;9.022;2022-12-04T05:54:38;2.80;99.90
2623;DHT22;1321;48.690;9.022;2022-12-04T05:57:07;2.70;99.90
2623;DHT22;1321;48.690;9.022;2022-12-04T05:59:35;2.80;99.90
2623;DHT22;1321;48.690;9.022;2022-12-04T06:02:03;2.90;99.90
2623;DHT22;1321;48.690;9.022;2022-12-04T06:04:31;2.90;99.90
2623;DHT22;1321;48.690;9.022;2022-12-04T06:06:59;2.90;99.90
2623;DHT22;1321;48.690;9.022;2022-12-04T06:09:28;2.90;99.90
2623;DHT22;1321;48.690;9.022;2022-12-04T06:11:58;2.60;99.90
2623;DHT22;1321;48.690;9.022;2022-12-04T06:14:26;2.70;99.90
2623;DHT22;1321;48.690;9.022;2022-12-04T06:16:54;2.80;99.90
2623;DHT22;1321;48.690;9.022;2022-12-04T06:19:22;2.80;99.90
2623;DHT22;1321;48.690;9.022;2022-12-04T06:21:51;2.90;99.90
2623;DHT22;1321;48.690;9.022;2022-12-04T06:24:21;2.90;99.90
2623;DHT22;1321;48.690;9.022;2022-12-04T06:26:53;2.90;99.90
2623;DHT22;1321;48.690;9.022;2022-12-04T06:29:44;2.90;99.90
2623;DHT22;1321;48.690;9.022;2022-12-04T06:32:12;2.90;99.90
2623;DHT22;1321;48.690;9.022;2022-12-04T06:34:49;2.90;99.90
2623;DHT22;1321;48.690;9.022;2022-12-04T06:37:18;2.90;99.90
2623;DHT22;1321;48.690;9.022;2022-12-04T06:39:47;2.90;99.90
2623;DHT22;1321;48.690;9.022;2022-12-04T06:42:15;2.90;99.90
2623;DHT22;1321;48.690;9.022;2022-12-04T06:44:45;3.00;99.90
2623;DHT22;1321;48.690;9.022;2022-12-04T06:47:13;2.90;99.90
2623;DHT22;1321;48.690;9.022;2022-12-04T06:49:42;2.80;99.90
2623;DHT22;1321;48.690;9.022;2022-12-04T06:52:11;2.90;99.90
2623;DHT22;1321;48.690;9.022;2022-12-04T06:54:40;2.90;99.90
2623;DHT22;1321;48.690;9.022;2022-12-04T06:57:08;2.90;99.90
2623;DHT22;1321;48.690;9.022;2022-12-04T06:59:36;2.90;99.90
2623;DHT22;1321;48.690;9.022;2022-12-04T07:02:07;2.90;99.90
2623;DHT22;1321;48.690;9.022;2022-12-04T07:04:36;3.00;99.90
2623;DHT22;1321;48.690;9.022;2022-12-04T07:07:06;2.90;99.90
2623;DHT22;1321;48.690;9.022;2022-12-04T07:09:35;2.80;99.90
2623;DHT22;1321;48.690;9.022;2022-12-04T07:12:03;2.80;99.90
2623;DHT22;1321;48.690;9.022;2022-12-04T07:14:32;2.90;99.90
2623;DHT22;1321;48.690;9.022;2022-12-04T07:17:00;2.90;99.90
2623;DHT22;1321;48.690;9.022;2022-12-04T07:19:30;2.90;99.90
2623;DHT22;1321;48.690;9.022;2022-12-04T07:21:58;2.90;99.90
2623;DHT22;1321;48.690;9.022;2022-12-04T07:24:26;2.90;99.90
2623;DHT22;1321;48.690;9.022;2022-12-04T07:26:54;2.80;99.90
2623;DHT22;1321;48.690;9.022;2022-12-04T07:29:22;2.80;99.90
2623;DHT22;1321;48.690;9.022;2022-12-04T07:31:50;2.80;1.00
2623;DHT22;1321;48.690;9.022;2022-12-04T07:34:18;2.90;99.90
2623;DHT22;1321;48.690;9.022;2022-12-04T07:36:48;3.00;99.90
2623;DHT22;1321;48.690;9.022;2022-12-04T07:39:16;3.00;99.90
2623;DHT22;1321;48.690;9.022;2022-12-04T07:41:44;3.00;99.90
2623;DHT22;1321;48.690;9.022;2022-12-04T07:44:12;3.10;99.90
2623;DHT22;1321;48.690;9.022;2022-12-04T07:46:40;2.90;99.90
2623;DHT22;1321;48.690;9.022;2022-12-04T07:49:10;2.90;99.90
2623;DHT22;1321;48.690;9.022;2022-12-04T07:51:39;3.00;99.90
2623;DHT22;1321;48.690;9.022;2022-12-04T07:54:08;2.90;99.90
2623;DHT22;1321;48.690;9.022;2022-12-04T07:56:36;2.90;99.90
2623;DHT22;1321;48.690;9.022;2022-12-04T07:59:04;3.00;99.90
2623;DHT22;1321;48.690;9.022;2022-12-04T08:01:33;3.00;99.90
2623;DHT22;1321;48.690;9.022;2022-12-04T08:04:01;3.00;99.90
2623;DHT22;1321;48.690;9.022;2022-12-04T08:06:32;3.10;99.90
2623;DHT22;1321;48.690;9.022;2022-12-04T08:09:00;3.10;99.90
2623;DHT22;1321;48.690;9.022;2022-12-04T08:11:37;3.00;99.90
2623;DHT22;1321;48.690;9.022;2022-12-04T08:14:05;3.00;1.00
2623;DHT22;1321;48.690;9.022;2022-12-04T08:16:35;3.10;99.90
2623;DHT22;1321;48.690;9.022;2022-12-04T08:19:04;3.10;99.90
2623;DHT22;1321;48.690;9.022;2022-12-04T08:21:32;3.00;99.90
2623;DHT22;1321;48.690;9.022;2022-12-04T08:24:01;3.10;99.90
2623;DHT22;1321;48.690;9.022;2022-12-04T08:26:30;3.00;99.90
2623;DHT22;1321;48.690;9.022;2022-12-04T08:29:01;3.00;99.90
2623;DHT22;1321;48.690;9.022;2022-12-04T08:31:31;3.00;99.90
2623;DHT22;1321;48.690;9.022;2022-12-04T08:34:01;3.00;99.90
2623;DHT22;1321;48.690;9.022;2022-12-04T08:36:31;2.90;99.90
2623;DHT22;1321;48.690;9.022;2022-12-04T08:38:59;3.10;99.90
2623;DHT22;1321;48.690;9.022;2022-12-04T08:41:28;3.10;99.90
2623;DHT22;1321;48.690;9.022;2022-12-04T08:43:56;3.00;99.90
2623;DHT22;1321;48.690;9.022;2022-12-04T08:46:27;3.10;99.90
2623;DHT22;1321;48.690;9.022;2022-12-04T08:48:55;3.30;99.90
2623;DHT22;1321;48.690;9.022;2022-12-04T08:51:26;3.20;99.90
2623;DHT22;1321;48.690;9.022;2022-12-04T08:53:55;3.20;99.90
2623;DHT22;1321;48.690;9.022;2022-12-04T08:56:25;3.10;99.90
2623;DHT22;1321;48.690;9.022;2022-12-04T08:58:54;3.10;99.90
2623;DHT22;1321;48.690;9.022;2022-12-04T09:01:23;3.10;99.90
2623;DHT22;1321;48.690;9.022;2022-12-04T09:03:54;3.10;99.90
2623;DHT22;1321;48.690;9.022;2022-12-04T09:06:23;3.20;1.00
2623;DHT22;1321;48.690;9.022;2022-12-04T09:08:52;3.20;99.90
2623;DHT22;1321;48.690;9.022;2022-12-04T09:11:23;3.20;99.90
2623;DHT22;1321;48.690;9.022;2022-12-04T09:13:51;3.30;99.90
2623;DHT22;1321;48.690;9.022;2022-12-04T09:16:22;3.20;99.90
2623;DHT22;1321;48.690;9.022;2022-12-04T09:18:51;3.20;99.90
2623;DHT22;1321;48.690;9.022;2022-12-04T09:21:21;3.20;99.90
2623;DHT22;1321;48.690;9.022;2022-12-04T09:23:50;3.20;99.90
2623;DHT22;1321;48.690;9.022;2022-12-04T09:26:21;3.30;99.90
2623;DHT22;1321;48.690;9.022;2022-12-04T09:28:51;3.30;99.90
2623;DHT22;1321;48.690;9.022;2022-12-04T09:31:20;3.20;1.00
2623;DHT22;1321;48.690;9.022;2022-12-04T09:33:49;3.30;1.00
2623;DHT22;1321;48.690;9.022;2022-12-04T09:36:18;3.30;99.90
2623;DHT22;1321;48.690;9.022;2022-12-04T09:38:49;3.40;99.90
2623;DHT22;1321;48.690;9.022;2022-12-04T09:44:15;3.40;99.90
2623;DHT22;1321;48.690;9.022;2022-12-04T09:46:49;3.50;99.90
2623;DHT22;1321;48.690;9.022;2022-12-04T09:49:22;3.50;99.90
2623;DHT22;1321;48.690;9.022;2022-12-04T09:51:54;3.50;99.90
2623;DHT22;1321;48.690;9.022;2022-12-04T09:54:30;3.60;99.90
2623;DHT22;1321;48.690;9.022;2022-12-04T09:57:07;3.50;99.90
2623;DHT22;1321;48.690;9.022;2022-12-04T09:59:39;3.50;99.90
2623;DHT22;1321;48.690;9.022;2022-12-04T10:02:30;3.50;99.90
2623;DHT22;1321;48.690;9.022;2022-12-04T10:05:01;3.50;99.90
2623;DHT22;1321;48.690;9.022;2022-12-04T10:07:32;3.50;99.90
2623;DHT22;1321;48.690;9.022;2022-12-04T10:10:09;3.50;99.90
2623;DHT22;1321;48.690;9.022;2022-12-04T10:12:48;3.60;99.90
2623;DHT22;1321;48.690;9.022;2022-12-04T10:15:26;3.50;99.90
2623;DHT22;1321;48.690;9.022;2022-12-04T10:18:18;3.60;99.90
2623;DHT22;1321;48.690;9.022;2022-12-04T10:21:08;3.50;99.90
2623;DHT22;1321;48.690;9.022;2022-12-04T10:23:51;3.50;99.90
2623;DHT22;1321;48.690;9.022;2022-12-04T10:26:27;3.60;99.90
2623;DHT22;1321;48.690;9.022;2022-12-04T10:29:00;3.60;99.90
2623;DHT22;1321;48.690;9.022;2022-12-04T10:31:30;3.60;99.90
2623;DHT22;1321;48.690;9.022;2022-12-04T10:34:04;3.60;99.90
2623;DHT22;1321;48.690;9.022;2022-12-04T10:36:33;3.60;99.90
2623;DHT22;1321;48.690;9.022;2022-12-04T10:39:08;3.60;99.90
2623;DHT22;1321;48.690;9.022;2022-12-04T10:41:46;3.60;99.90
2623;DHT22;1321;48.690;9.022;2022-12-04T10:44:18;3.60;99.90
2623;DHT22;1321;48.690;9.022;2022-12-04T10:46:48;3.60;99.90
2623;DHT22;1321;48.690;9.022;2022-12-04T10:49:20;3.60;99.90
2623;DHT22;1321;48.690;9.022;2022-12-04T10:51:49;3.70;99.90
2623;DHT22;1321;48.690;9.022;2022-12-04T10:54:19;3.60;99.90
2623;DHT22;1321;48.690;9.022;2022-12-04T10:56:54;3.50;89.40
2623;DHT22;1321;48.690;9.022;2022-12-04T10:59:23;3.60;99.90
2623;DHT22;1321;48.690;9.022;2022-12-04T11:01:58;3.60;99.90
2623;DHT22;1321;48.690;9.022;2022-12-04T11:04:33;3.60;84.40
2623;DHT22;1321;48.690;9.022;2022-12-04T11:07:03;3.60;19.90
2623;DHT22;1321;48.690;9.022;2022-12-04T11:09:32;3.60;99.90
2623;DHT22;1321;48.690;9.022;2022-12-04T11:12:07;3.60;99.90
2623;DHT22;1321;48.690;9.022;2022-12-04T11:14:36;3.60;99.90
2623;DHT22;1321;48.690;9.022;2022-12-04T11:17:16;3.70;99.90
2623;DHT22;1321;48.690;9.022;2022-12-04T11:19:45;3.70;99.90
2623;DHT22;1321;48.690;9.022;2022-12-04T11:22:15;3.60;1.00
2623;DHT22;1321;48.690;9.022;2022-12-04T11:24:51;3.80;99.90
2623;DHT22;1321;48.690;9.022;2022-12-04T11:27:24;3.80;99.90
2623;DHT22;1321;48.690;9.022;2022-12-04T11:29:54;3.70;99.90
2623;DHT22;1321;48.690;9.022;2022-12-04T11:32:24;3.70;99.90
2623;DHT22;1321;48.690;9.022;2022-12-04T11:34:56;3.70;99.90
2623;DHT22;1321;48.690;9.022;2022-12-04T11:37:28;3.70;99.90
2623;DHT22;1321;48.690;9.022;2022-12-04T11:39:57;3.60;99.90
2623;DHT22;1321;48.690;9.022;2022-12-04T11:42:29;3.60;99.90
2623;DHT22;1321;48.690;9.022;2022-12-04T11:44:58;3.60;99.90
2623;DHT22;1321;48.690;9.022;2022-12-04T11:47:29;3.60;1.00
2623;DHT22;1321;48.690;9.022;2022-12-04T11:50:01;3.50;1.00
2623;DHT22;1321;48.690;9.022;2022-12-04T11:52:44;3.50;1.00
2623;DHT22;1321;48.690;9.022;2022-12-04T11:55:18;3.60;1.00
2623;DHT22;1321;48.690;9.022;2022-12-04T11:58:17;3.60;1.00
2623;DHT22;1321;48.690;9.022;2022-12-04T12:00:54;3.60;1.00
2623;DHT22;1321;48.690;9.022;2022-12-04T12:03:30;3.60;1.00
2623;DHT22;1321;48.690;9.022;2022-12-04T12:06:21;3.70;1.00
2623;DHT22;1321;48.690;9.022;2022-12-04T12:09:09;3.60;1.00
2623;DHT22;1321;48.690;9.022;2022-12-04T12:11:48;3.60;1.00
2623;DHT22;1321;48.690;9.022;2022-12-04T12:14:26;3.70;1.00
2623;DHT22;1321;48.690;9.022;2022-12-04T12:17:10;3.70;1.00
2623;DHT22;1321;48.690;9.022;2022-12-04T12:19:59;3.80;1.00
2623;DHT22;1321;48.690;9.022;2022-12-04T12:22:51;3.80;1.00
2623;DHT22;1321;48.690;9.022;2022-12-04T12:25:28;3.70;1.00
2623;DHT22;1321;48.690;9.022;2022-12-04T12:28:09;3.70;1.00
2623;DHT22;1321;48.690;9.022;2022-12-04T12:30:53;3.70;1.00
2623;DHT22;1321;48.690;9.022;2022-12-04T12:33:34;3.80;1.00
2623;DHT22;1321;48.690;9.022;2022-12-04T12:36:07;3.80;1.00
2623;DHT22;1321;48.690;9.022;2022-12-04T12:38:40;3.80;1.00
2623;DHT22;1321;48.690;9.022;2022-12-04T12:41:13;3.80;1.00
2623;DHT22;1321;48.690;9.022;2022-12-04T12:43:44;3.90;1.00
2623;DHT22;1321;48.690;9.022;2022-12-04T12:46:21;3.90;1.00
2623;DHT22;1321;48.690;9.022;2022-12-04T12:48:57;3.90;1.00
2623;DHT22;1321;48.690;9.022;2022-12-04T12:51:32;3.90;1.00
2623;DHT22;1321;48.690;9.022;2022-12-04T12:54:11;3.80;1.00
2623;DHT22;1321;48.690;9.022;2022-12-04T12:56:48;3.80;1.00
2623;DHT22;1321;48.690;9.022;2022-12-04T12:59:21;3.90;1.00
2623;DHT22;1321;48.690;9.022;2022-12-04T13:01:55;3.90;1.00
2623;DHT22;1321;48.690;9.022;2022-12-04T13:04:34;3.80;1.00
2623;DHT22;1321;48.690;9.022;2022-12-04T13:07:19;3.80;1.00
2623;DHT22;1321;48.690;9.022;2022-12-04T13:09:55;3.90;1.00
2623;DHT22;1321;48.690;9.022;2022-12-04T13:12:26;3.90;1.00
2623;DHT22;1321;48.690;9.022;2022-12-04T13:14:54;3.90;1.00
2623;DHT22;1321;48.690;9.022;2022-12-04T13:17:29;3.90;1.00
2623;DHT22;1321;48.690;9.022;2022-12-04T13:20:01;3.80;1.00
2623;DHT22;1321;48.690;9.022;2022-12-04T13:22:43;3.80;1.00
2623;DHT22;1321;48.690;9.022;2022-12-04T13:25:24;3.90;1.00
2623;DHT22;1321;48.690;9.022;2022-12-04T13:28:06;3.90;1.00
2623;DHT22;1321;48.690;9.022;2022-12-04T13:30:43;3.80;1.00
2623;DHT22;1321;48.690;9.022;2022-12-04T13:33:39;3.80;1.00
2623;DHT22;1321;48.690;9.022;2022-12-04T13:36:19;3.70;1.00
2623;DHT22;1321;48.690;9.022;2022-12-04T13:39:07;3.80;1.00
2623;DHT22;1321;48.690;9.022;2022-12-04T13:41:45;3.80;1.00
2623;DHT22;1321;48.690;9.022;2022-12-04T13:44:20;3.80;1.00
2623;DHT22;1321;48.690;9.022;2022-12-04T13:46:52;3.80;1.00
2623;DHT22;1321;48.690;9.022;2022-12-04T13:49:27;3.80;1.00
2623;DHT22;1321;48.690;9.022;2022-12-04T13:51:57;3.80;1.00
2623;DHT22;1321;48.690;9.022;2022-12-04T13:54:29;3.90;1.00
2623;DHT22;1321;48.690;9.022;2022-12-04T13:57:16;3.90;1.00
2623;DHT22;1321;48.690;9.022;2022-12-04T13:59:45;3.80;1.00
2623;DHT22;1321;48.690;9.022;2022-12-04T14:02:24;3.80;1.00
2623;DHT22;1321;48.690;9.022;2022-12-04T14:04:59;3.70;1.00
2623;DHT22;1321;48.690;9.022;2022-12-04T14:07:30;3.80;1.00
2623;DHT22;1321;48.690;9.022;2022-12-04T14:10:02;3.80;1.00
2623;DHT22;1321;48.690;9.022;2022-12-04T14:12:33;3.80;1.00
2623;DHT22;1321;48.690;9.022;2022-12-04T14:15:05;3.80;1.00
2623;DHT22;1321;48.690;9.022;2022-12-04T14:17:36;3.90;1.00
2623;DHT22;1321;48.690;9.022;2022-12-04T14:20:19;4.00;1.00
2623;DHT22;1321;48.690;9.022;2022-12-04T14:22:48;3.80;1.00
2623;DHT22;1321;48.690;9.022;2022-12-04T14:25:32;3.90;1.00
2623;DHT22;1321;48.690;9.022;2022-12-04T14:28:22;3.70;1.00
2623;DHT22;1321;48.690;9.022;2022-12-04T14:31:21;3.80;1.00
2623;DHT22;1321;48.690;9.022;2022-12-04T14:33:53;3.70;1.00
2623;DHT22;1321;48.690;9.022;2022-12-04T14:36:26;3.70;1.00
2623;DHT22;1321;48.690;9.022;2022-12-04T14:39:02;3.70;1.00
2623;DHT22;1321;48.690;9.022;2022-12-04T14:41:31;3.70;1.00
2623;DHT22;1321;48.690;9.022;2022-12-04T14:44:00;3.80;1.00
2623;DHT22;1321;48.690;9.022;2022-12-04T14:46:36;3.70;1.00
2623;DHT22;1321;48.690;9.022;2022-12-04T14:49:17;3.70;1.00
2623;DHT22;1321;48.690;9.022;2022-12-04T14:51:55;3.70;1.00
2623;DHT22;1321;48.690;9.022;2022-12-04T14:54:30;3.70;1.00
2623;DHT22;1321;48.690;9.022;2022-12-04T14:57:10;3.60;1.00
2623;DHT22;1321;48.690;9.022;2022-12-04T14:59:44;3.70;1.00
2623;DHT22;1321;48.690;9.022;2022-12-04T15:02:16;3.70;1.00
2623;DHT22;1321;48.690;9.022;2022-12-04T15:04:46;3.60;1.00
2623;DHT22;1321;48.690;9.022;2022-12-04T15:07:20;3.70;1.00
2623;DHT22;1321;48.690;9.022;2022-12-04T15:09:53;3.70;1.00
2623;DHT22;1321;48.690;9.022;2022-12-04T15:12:42;3.70;1.00
2623;DHT22;1321;48.690;9.022;2022-12-04T15:15:15;3.60;1.00
2623;DHT22;1321;48.690;9.022;2022-12-04T15:17:58;3.70;1.00
2623;DHT22;1321;48.690;9.022;2022-12-04T15:20:28;3.60;1.00
2623;DHT22;1321;48.690;9.022;2022-12-04T15:23:08;3.70;1.00
2623;DHT22;1321;48.690;9.022;2022-12-04T15:25:44;3.60;1.00
2623;DHT22;1321;48.690;9.022;2022-12-04T15:28:15;3.60;1.00
2623;DHT22;1321;48.690;9.022;2022-12-04T15:30:45;3.60;1.00
2623;DHT22;1321;48.690;9.022;2022-12-04T15:33:18;3.60;1.00
2623;DHT22;1321;48.690;9.022;2022-12-04T15:35:51;3.60;1.00
2623;DHT22;1321;48.690;9.022;2022-12-04T15:38:22;3.60;1.00
2623;DHT22;1321;48.690;9.022;2022-12-04T15:40:53;3.60;1.00
2623;DHT22;1321;48.690;9.022;2022-12-04T15:43:27;3.60;1.00
2623;DHT22;1321;48.690;9.022;2022-12-04T15:45:56;3.60;1.00
2623;DHT22;1321;48.690;9.022;2022-12-04T15:48:26;3.60;1.00
2623;DHT22;1321;48.690;9.022;2022-12-04T15:50:57;3.60;1.00
2623;DHT22;1321;48.690;9.022;2022-12-04T15:53:29;3.60;1.00
2623;DHT22;1321;48.690;9.022;2022-12-04T15:56:01;3.70;1.00
2623;DHT22;1321;48.690;9.022;2022-12-04T15:58:31;3.70;1.00
2623;DHT22;1321;48.690;9.022;2022-12-04T16:01:01;3.70;1.00
2623;DHT22;1321;48.690;9.022;2022-12-04T16:03:44;3.70;1.00
2623;DHT22;1321;48.690;9.022;2022-12-04T16:06:17;3.70;1.00
2623;DHT22;1321;48.690;9.022;2022-12-04T16:08:48;3.70;1.00
2623;DHT22;1321;48.690;9.022;2022-12-04T16:11:31;3.70;1.00
2623;DHT22;1321;48.690;9.022;2022-12-04T16:14:17;3.60;1.00
2623;DHT22;1321;48.690;9.022;2022-12-04T16:16:47;3.60;1.00
2623;DHT22;1321;48.690;9.022;2022-12-04T16:19:24;3.70;1.00
2623;DHT22;1321;48.690;9.022;2022-12-04T16:21:54;3.60;1.00
2623;DHT22;1321;48.690;9.022;2022-12-04T16:24:24;3.70;1.00
2623;DHT22;1321;48.690;9.022;2022-12-04T16:26:54;3.80;1.00
2623;DHT22;1321;48.690;9.022;2022-12-04T16:29:23;3.70;1.00
2623;DHT22;1321;48.690;9.022;2022-12-04T16:31:51;3.70;1.00
2623;DHT22;1321;48.690;9.022;2022-12-04T16:34:27;3.60;1.00
2623;DHT22;1321;48.690;9.022;2022-12-04T16:36:55;3.70;1.00
2623;DHT22;1321;48.690;9.022;2022-12-04T16:39:25;3.70;1.00
2623;DHT22;1321;48.690;9.022;2022-12-04T16:41:53;3.70;1.00
2623;DHT22;1321;48.690;9.022;2022-12-04T16:44:21;3.70;1.00
2623;DHT22;1321;48.690;9.022;2022-12-04T16:46:49;3.60;1.00
2623;DHT22;1321;48.690;9.022;2022-12-04T16:49:18;3.60;1.00
2623;DHT22;1321;48.690;9.022;2022-12-04T16:51:47;3.60;1.00
2623;DHT22;1321;48.690;9.022;2022-12-04T16:54:17;3.60;1.00
2623;DHT22;1321;48.690;9.022;2022-12-04T16:56:46;3.70;1.00
2623;DHT22;1321;48.690;9.022;2022-12-04T16:59:15;3.60;1.00
2623;DHT22;1321;48.690;9.022;2022-12-04T17:01:45;3.70;1.00
2623;DHT22;1321;48.690;9.022;2022-12-04T17:04:15;3.70;1.00
2623;DHT22;1321;48.690;9.022;2022-12-04T17:06:44;3.70;1.00